Aérodrome :
LOGIN :

S'inscrire | Disclaimer

   EN    FR    IT 

 










Légende :    VFR   VFR Marginal   IFR   IFR Intensif   IFR Très Intensif
Visi : 
Plafond : 
>= 8 km
>= 3000ft
5 à 8 km
1000 à 3000 ft
1500m à 5 km
500 à 1000 ft
800 à 1500m
200 à 500 ft
< 800m
< 200 ft
Symboles :   Orages  Brouillard  Fortes neiges  Fortes précipitations  Vent > 20 kt
SIGMETs :   Divers  Orages  Givrage  Turbulence  Onde Orograph.  Cendres Volcan.






- Altitude de l'aérodrome : 18 ft
- Code IATA : AJA


LFKJ - Ajaccio

DERNIER METAR :
  • 180000Z AUTO 04007KT 010V070 CAVOK 04/02 Q1018 NOSIG

METARs EXPIRÉS :
  • 172330Z AUTO 05006KT 020V080 CAVOK 04/03 Q1017 NOSIG
  • 172300Z AUTO 04005KT 010V070 CAVOK 04/03 Q1017 NOSIG
  • 172230Z AUTO 04007KT CAVOK 04/03 Q1017 NOSIG
  • 172200Z AUTO 04005KT CAVOK 05/04 Q1016 NOSIG
  • 172130Z AUTO 05006KT CAVOK 06/04 Q1015 NOSIG

TAF TAF LFKJ
Valide du 17 à 21h jusqu'au 18 à 21h UTC


172000Z 1721/1821 05005KT 9999 SCT020
BECMG 1811/1813 24005KT
BECMG 1817/1819 05005KT
ATIS : +33 4 95 23 59 85



MET'MAP, la Météo Aéronautique d'un coup d'oeil ! - Copyright ORBIFLY Décembre 2007 - Disclaimer

ORBIFLY MET'MAP TEAM :

Programmation & Développement : Alexandra Zaïnal
Sur une idée originale de : Baudouin d'Aumeries
Assistance à la programmation : Marc-Olivier Méhu
Soutien technique & logistique : Manuel Goepfert

Contact : metmap@orbifly.com




SOURCES & CREDITS :

   NOAA